Time;durP1;ratioP1;P1;durP2;ratioP2;P2;SDS_P1;SDS_P2;PMS_P1;PMS_P2;Temp;Humidity;BMP_temperature;BMP_pressure;BME280_temperature;BME280_humidity;BME280_pressure;Samples;Min_cycle;Max_cycle;Signal;HPM_P1;HPM_P2
2022/03/22 00:00:13;;;;;;;37.20;24.50;;;;;;;;;;5007777;28;20072;-83
2022/03/22 00:02:44;;;;;;;39.17;24.88;;;;;;;;;;5007835;28;20059;-83
2022/03/22 00:05:13;;;;;;;39.20;26.00;;;;;;;;;;4984248;28;20096;-84
2022/03/22 00:07:39;;;;;;;35.75;24.83;;;;;;;;;;5016540;28;20046;-83
2022/03/22 00:10:14;;;;;;;40.95;24.02;;;;;;;;;;5033467;28;20060;-84
2022/03/22 00:12:40;;;;;;;39.63;25.42;;;;;;;;;;5035878;28;20046;-84
2022/03/22 00:15:08;;;;;;;48.88;29.25;;;;;;;;;;5018298;28;20460;-83
2022/03/22 00:17:34;;;;;;;39.90;25.65;;;;;;;;;;5016538;28;20374;-83
2022/03/22 00:20:01;;;;;;;35.53;25.42;;;;;;;;;;5032769;28;20049;-83
2022/03/22 00:22:35;;;;;;;38.08;25.33;;;;;;;;;;5019034;28;20401;-84
2022/03/22 00:25:01;;;;;;;36.97;26.00;;;;;;;;;;5015792;28;20104;-84
2022/03/22 00:27:27;;;;;;;43.20;28.55;;;;;;;;;;5032543;28;20135;-83
2022/03/22 00:29:54;;;;;;;42.97;27.40;;;;;;;;;;5031339;28;20190;-84
2022/03/22 00:32:21;;;;;;;38.40;26.73;;;;;;;;;;4998874;28;20057;-83
2022/03/22 00:34:48;;;;;;;35.35;26.08;;;;;;;;;;5032647;28;20057;-83
2022/03/22 00:37:15;;;;;;;42.67;27.13;;;;;;;;;;5016500;28;20045;-83
2022/03/22 00:39:42;;;;;;;40.08;26.20;;;;;;;;;;4999884;28;20478;-83
2022/03/22 00:42:08;;;;;;;41.92;27.08;;;;;;;;;;4983541;28;20151;-83
2022/03/22 00:44:38;;;;;;;35.83;25.95;;;;;;;;;;4995646;28;20054;-83
2022/03/22 00:47:13;;;;;;;42.78;26.35;;;;;;;;;;5023994;28;20227;-83
2022/03/22 00:49:39;;;;;;;35.25;24.48;;;;;;;;;;5062231;28;20057;-83
2022/03/22 00:52:06;;;;;;;42.10;27.33;;;;;;;;;;5016986;28;20049;-83
2022/03/22 00:54:35;;;;;;;38.35;26.73;;;;;;;;;;4981072;28;20128;-84
2022/03/22 00:57:01;;;;;;;36.60;26.13;;;;;;;;;;5028114;28;20103;-84
2022/03/22 01:02:15;;;;;;;45.25;28.42;;;;;;;;;;5035427;28;20045;-83
2022/03/22 01:04:43;;;;;;;39.13;26.63;;;;;;;;;;5035401;28;20048;-84
2022/03/22 01:07:13;;;;;;;41.00;27.27;;;;;;;;;;5035296;28;20052;-83
2022/03/22 01:09:42;;;;;;;40.10;25.88;;;;;;;;;;5018504;28;20076;-83
2022/03/22 01:12:09;;;;;;;41.28;28.63;;;;;;;;;;5033908;28;20061;-83
2022/03/22 01:14:35;;;;;;;50.63;30.83;;;;;;;;;;5033505;28;20083;-84
2022/03/22 01:17:02;;;;;;;42.92;26.33;;;;;;;;;;5024807;28;20059;-83
2022/03/22 01:19:28;;;;;;;37.45;25.00;;;;;;;;;;5052426;28;20088;-84
2022/03/22 01:21:57;;;;;;;43.13;29.02;;;;;;;;;;5033887;28;20056;-83
2022/03/22 01:24:26;;;;;;;35.50;26.45;;;;;;;;;;5012484;28;20061;-83
2022/03/22 01:26:52;;;;;;;49.70;29.70;;;;;;;;;;4998772;28;20102;-84
2022/03/22 01:29:19;;;;;;;37.55;27.35;;;;;;;;;;5035824;28;20045;-84
2022/03/22 01:31:49;;;;;;;46.40;28.48;;;;;;;;;;5033901;28;20465;-83
2022/03/22 01:34:16;;;;;;;46.25;27.15;;;;;;;;;;5034421;28;20053;-84
2022/03/22 01:36:42;;;;;;;43.78;30.08;;;;;;;;;;5017308;28;20060;-83
2022/03/22 01:39:08;;;;;;;45.05;30.17;;;;;;;;;;4999633;28;20056;-83
2022/03/22 01:41:35;;;;;;;47.05;29.00;;;;;;;;;;5014103;28;20074;-83
2022/03/22 01:44:01;;;;;;;41.03;29.50;;;;;;;;;;5027630;28;20041;-83
2022/03/22 01:46:28;;;;;;;41.75;28.08;;;;;;;;;;5025949;28;20033;-83
2022/03/22 01:48:59;;;;;;;40.00;27.75;;;;;;;;;;5033093;28;20407;-83
2022/03/22 01:51:34;;;;;;;38.28;27.55;;;;;;;;;;5039175;28;20042;-83
2022/03/22 01:54:04;;;;;;;42.67;29.05;;;;;;;;;;5032409;28;20056;-83
2022/03/22 01:56:31;;;;;;;47.65;30.15;;;;;;;;;;5033228;28;20407;-83
2022/03/22 01:58:58;;;;;;;46.72;29.60;;;;;;;;;;5001171;28;20558;-83
2022/03/22 02:06:54;;;;;;;44.85;30.50;;;;;;;;;;5050352;28;20060;-83
2022/03/22 02:09:20;;;;;;;49.42;29.50;;;;;;;;;;5017630;28;20056;-83
2022/03/22 02:11:49;;;;;;;50.95;30.20;;;;;;;;;;5033986;28;20056;-83
2022/03/22 02:14:16;;;;;;;50.38;30.73;;;;;;;;;;5027721;28;20045;-83
2022/03/22 02:16:42;;;;;;;45.03;30.00;;;;;;;;;;5037182;28;20489;-83
2022/03/22 02:19:12;;;;;;;45.38;29.60;;;;;;;;;;5033739;28;20087;-83
2022/03/22 02:21:39;;;;;;;44.03;29.65;;;;;;;;;;5017573;28;20040;-83
2022/03/22 02:24:06;;;;;;;48.42;30.75;;;;;;;;;;5033810;28;20049;-83
2022/03/22 02:26:32;;;;;;;44.15;29.80;;;;;;;;;;5049037;28;20055;-84
2022/03/22 02:28:59;;;;;;;45.08;29.73;;;;;;;;;;5033572;28;20048;-83
2022/03/22 02:31:29;;;;;;;47.10;30.80;;;;;;;;;;4998980;28;20136;-83
2022/03/22 02:33:55;;;;;;;46.83;30.75;;;;;;;;;;5035243;28;20137;-84
2022/03/22 02:36:25;;;;;;;42.72;29.67;;;;;;;;;;5033963;28;20044;-84
2022/03/22 02:38:52;;;;;;;48.97;30.70;;;;;;;;;;5013331;28;20045;-83
2022/03/22 02:41:19;;;;;;;45.63;30.48;;;;;;;;;;5049900;28;20044;-83
2022/03/22 02:43:45;;;;;;;47.45;29.02;;;;;;;;;;5040447;28;20056;-84
2022/03/22 02:46:15;;;;;;;47.92;30.08;;;;;;;;;;5033344;28;20056;-84
2022/03/22 02:48:51;;;;;;;45.22;31.20;;;;;;;;;;5033311;28;20160;-83
2022/03/22 02:51:17;;;;;;;41.38;28.75;;;;;;;;;;5009780;28;20048;-83
2022/03/22 02:53:49;;;;;;;45.20;29.55;;;;;;;;;;5037449;28;20510;-83
2022/03/22 02:56:15;;;;;;;45.22;31.10;;;;;;;;;;5048649;28;20049;-83
2022/03/22 02:58:42;;;;;;;44.38;29.00;;;;;;;;;;5016920;28;20072;-84
2022/03/22 03:01:11;;;;;;;42.30;29.90;;;;;;;;;;5033148;28;20057;-83
2022/03/22 03:03:37;;;;;;;40.65;31.25;;;;;;;;;;5017564;28;20131;-83
2022/03/22 03:06:06;;;;;;;53.65;34.50;;;;;;;;;;5052933;28;20036;-84
2022/03/22 03:08:32;;;;;;;45.67;29.83;;;;;;;;;;5048412;28;20080;-84
2022/03/22 03:10:59;;;;;;;43.33;31.27;;;;;;;;;;5030611;28;20057;-83
2022/03/22 03:13:25;;;;;;;45.65;30.52;;;;;;;;;;5021923;28;20054;-83
2022/03/22 03:15:52;;;;;;;55.63;33.28;;;;;;;;;;5028192;28;20049;-83
2022/03/22 03:18:21;;;;;;;45.30;29.73;;;;;;;;;;5032066;28;20060;-83
2022/03/22 03:20:50;;;;;;;47.53;32.00;;;;;;;;;;5032942;28;20045;-84
2022/03/22 03:23:17;;;;;;;42.58;30.92;;;;;;;;;;5017133;28;20155;-83
2022/03/22 03:25:46;;;;;;;48.15;32.13;;;;;;;;;;4997829;28;20056;-83
2022/03/22 03:28:12;;;;;;;49.53;29.77;;;;;;;;;;4979496;28;20050;-83
2022/03/22 03:30:42;;;;;;;48.83;32.08;;;;;;;;;;5013723;28;20299;-83
2022/03/22 03:33:08;;;;;;;47.70;31.88;;;;;;;;;;5016492;28;20053;-83
2022/03/22 03:35:34;;;;;;;44.13;32.72;;;;;;;;;;5024759;28;20060;-83
2022/03/22 03:38:00;;;;;;;45.53;31.45;;;;;;;;;;5032870;28;20561;-83
2022/03/22 03:43:24;;;;;;;45.35;31.73;;;;;;;;;;5031976;28;20049;-83
2022/03/22 03:48:35;;;;;;;45.15;29.77;;;;;;;;;;5025403;28;20060;-83
2022/03/22 03:51:01;;;;;;;48.90;32.80;;;;;;;;;;5015245;28;20658;-83
2022/03/22 03:53:27;;;;;;;43.22;31.10;;;;;;;;;;5032372;28;20053;-83
2022/03/22 03:55:56;;;;;;;48.83;31.25;;;;;;;;;;5035469;28;20041;-83
2022/03/22 03:58:22;;;;;;;43.38;28.42;;;;;;;;;;5016148;28;20167;-84
2022/03/22 04:00:49;;;;;;;43.95;29.20;;;;;;;;;;5046480;28;20057;-84
2022/03/22 04:03:15;;;;;;;43.28;30.95;;;;;;;;;;5011775;28;20056;-84
2022/03/22 04:05:41;;;;;;;44.42;31.38;;;;;;;;;;5040727;28;20107;-84
2022/03/22 04:08:07;;;;;;;43.47;29.67;;;;;;;;;;5020888;28;20042;-84
2022/03/22 04:10:59;;;;;;;45.10;29.63;;;;;;;;;;4991271;28;20049;-82
2022/03/22 04:13:40;;;;;;;45.75;27.90;;;;;;;;;;4988141;28;20058;-79
2022/03/22 04:16:07;;;;;;;45.22;30.50;;;;;;;;;;5012634;28;20061;-80
2022/03/22 04:18:35;;;;;;;36.70;27.75;;;;;;;;;;4978855;28;20104;-79
2022/03/22 04:21:01;;;;;;;48.35;30.17;;;;;;;;;;4994960;28;20066;-79
2022/03/22 04:23:28;;;;;;;45.70;30.23;;;;;;;;;;4995570;28;20141;-79
2022/03/22 04:25:54;;;;;;;50.75;32.45;;;;;;;;;;4995293;28;20100;-79
2022/03/22 04:33:51;;;;;;;46.45;30.42;;;;;;;;;;4993273;28;20121;-80
2022/03/22 04:36:18;;;;;;;49.75;33.08;;;;;;;;;;4987291;28;20054;-80
2022/03/22 04:38:44;;;;;;;43.65;30.05;;;;;;;;;;4996161;28;20401;-79
2022/03/22 04:41:11;;;;;;;48.40;32.55;;;;;;;;;;5011553;28;20045;-79
2022/03/22 04:43:38;;;;;;;49.00;33.40;;;;;;;;;;4975653;28;20058;-79
2022/03/22 04:46:07;;;;;;;48.83;33.08;;;;;;;;;;4991586;28;20160;-80
2022/03/22 04:48:34;;;;;;;49.28;31.67;;;;;;;;;;5013023;28;20092;-79
2022/03/22 04:56:46;;;;;;;49.58;32.92;;;;;;;;;;5011018;28;20054;-79
2022/03/22 04:59:24;;;;;;;45.65;31.38;;;;;;;;;;4994849;28;20379;-80
2022/03/22 05:01:53;;;;;;;48.90;31.60;;;;;;;;;;5011216;28;20453;-79
2022/03/22 05:04:23;;;;;;;45.63;31.88;;;;;;;;;;4995363;28;20498;-80
2022/03/22 05:06:50;;;;;;;47.08;33.05;;;;;;;;;;4979025;28;20378;-82
2022/03/22 05:09:18;;;;;;;46.97;32.17;;;;;;;;;;4996046;28;20089;-84
2022/03/22 05:11:45;;;;;;;53.38;34.33;;;;;;;;;;5001185;28;20049;-84
2022/03/22 05:14:11;;;;;;;42.92;31.20;;;;;;;;;;4996729;28;20053;-84
2022/03/22 05:16:39;;;;;;;49.47;33.42;;;;;;;;;;4998642;28;20073;-84
2022/03/22 05:19:16;;;;;;;51.75;32.28;;;;;;;;;;4998689;28;20042;-84
2022/03/22 05:21:48;;;;;;;47.08;31.98;;;;;;;;;;5014797;28;20045;-84
2022/03/22 05:24:15;;;;;;;46.00;32.08;;;;;;;;;;5031588;28;20049;-84
2022/03/22 05:26:41;;;;;;;48.95;30.95;;;;;;;;;;5032921;28;20113;-84
2022/03/22 05:29:13;;;;;;;45.88;31.17;;;;;;;;;;5015546;28;20050;-84
2022/03/22 05:31:45;;;;;;;53.33;34.60;;;;;;;;;;5015674;28;20057;-84
2022/03/22 05:34:12;;;;;;;51.92;32.42;;;;;;;;;;5031599;28;20120;-84
2022/03/22 05:36:38;;;;;;;49.20;31.58;;;;;;;;;;5014913;28;20041;-84
2022/03/22 05:39:05;;;;;;;48.17;33.85;;;;;;;;;;5010511;28;20431;-84
2022/03/22 05:41:31;;;;;;;51.15;33.00;;;;;;;;;;4976796;28;20390;-84
2022/03/22 05:43:58;;;;;;;52.30;31.98;;;;;;;;;;4994300;28;20056;-84
2022/03/22 05:46:28;;;;;;;44.38;32.67;;;;;;;;;;4996949;28;20119;-84
2022/03/22 05:48:55;;;;;;;46.08;29.70;;;;;;;;;;5014779;28;20153;-84
2022/03/22 05:51:25;;;;;;;48.00;32.33;;;;;;;;;;5014725;28;20192;-85
2022/03/22 05:53:52;;;;;;;48.80;32.55;;;;;;;;;;5026082;28;20084;-84
2022/03/22 05:56:18;;;;;;;46.85;32.53;;;;;;;;;;5030085;28;20052;-84
2022/03/22 05:58:46;;;;;;;44.78;32.35;;;;;;;;;;5038160;28;20045;-84
2022/03/22 06:01:13;;;;;;;47.35;33.58;;;;;;;;;;4998707;28;20041;-84
2022/03/22 06:03:39;;;;;;;55.53;31.95;;;;;;;;;;5021481;28;20374;-84
2022/03/22 06:06:10;;;;;;;46.83;31.50;;;;;;;;;;5014525;28;20401;-84
2022/03/22 06:08:36;;;;;;;49.40;31.55;;;;;;;;;;5017204;28;20045;-80
2022/03/22 06:11:05;;;;;;;45.03;31.58;;;;;;;;;;4999012;28;20429;-80
2022/03/22 06:13:31;;;;;;;47.38;30.98;;;;;;;;;;5010158;28;20057;-80
2022/03/22 06:15:58;;;;;;;56.03;34.25;;;;;;;;;;5006518;28;20088;-80
2022/03/22 06:18:24;;;;;;;44.15;30.25;;;;;;;;;;5002220;28;20050;-84
2022/03/22 06:20:50;;;;;;;50.53;33.33;;;;;;;;;;4979573;28;20053;-81
2022/03/22 06:23:20;;;;;;;51.83;32.15;;;;;;;;;;4988787;28;20053;-80
2022/03/22 06:25:47;;;;;;;50.15;31.55;;;;;;;;;;5004669;28;20523;-83
2022/03/22 06:28:14;;;;;;;43.47;31.95;;;;;;;;;;5003787;28;20529;-81
2022/03/22 06:30:41;;;;;;;51.00;29.90;;;;;;;;;;5020915;28;20056;-79
2022/03/22 06:33:12;;;;;;;45.95;31.30;;;;;;;;;;5024885;28;20382;-79
2022/03/22 06:35:40;;;;;;;46.67;31.50;;;;;;;;;;5011799;28;20450;-81
2022/03/22 06:38:07;;;;;;;57.33;36.20;;;;;;;;;;5011183;28;20057;-80
2022/03/22 06:40:38;;;;;;;42.20;28.90;;;;;;;;;;5016202;28;20053;-80
2022/03/22 06:43:05;;;;;;;46.28;31.42;;;;;;;;;;5023033;28;20104;-84
2022/03/22 06:45:36;;;;;;;49.67;33.25;;;;;;;;;;4999929;28;20140;-79
2022/03/22 06:48:09;;;;;;;48.58;32.97;;;;;;;;;;5020448;28;20053;-80
2022/03/22 06:50:42;;;;;;;45.83;32.25;;;;;;;;;;5019959;28;20045;-80
2022/03/22 06:53:08;;;;;;;46.95;31.35;;;;;;;;;;5029780;28;20071;-82
2022/03/22 06:55:35;;;;;;;58.45;35.53;;;;;;;;;;4992063;28;20092;-79
2022/03/22 06:58:02;;;;;;;48.05;33.20;;;;;;;;;;4999878;28;20042;-82
2022/03/22 07:00:32;;;;;;;50.75;32.75;;;;;;;;;;5029680;28;20096;-82
2022/03/22 07:03:00;;;;;;;49.40;33.78;;;;;;;;;;5034886;28;20045;-80
2022/03/22 07:05:28;;;;;;;44.65;30.83;;;;;;;;;;4983462;28;20067;-80
2022/03/22 07:07:54;;;;;;;52.30;33.60;;;;;;;;;;5015049;28;20148;-81
2022/03/22 07:10:20;;;;;;;50.15;33.72;;;;;;;;;;5011700;28;20141;-81
2022/03/22 07:13:06;;;;;;;54.20;34.15;;;;;;;;;;4966107;28;1544333;-80
2022/03/22 07:15:37;;;;;;;52.30;34.38;;;;;;;;;;5038730;28;20073;-81
2022/03/22 07:18:05;;;;;;;54.00;32.47;;;;;;;;;;5032159;28;20056;-85
2022/03/22 07:20:39;;;;;;;50.33;32.97;;;;;;;;;;4988355;28;20049;-85
2022/03/22 07:23:11;;;;;;;52.13;34.35;;;;;;;;;;5032851;28;20045;-84
2022/03/22 07:25:39;;;;;;;47.78;33.05;;;;;;;;;;5032043;28;20084;-83
2022/03/22 07:28:05;;;;;;;46.55;32.97;;;;;;;;;;5015403;28;20053;-84
2022/03/22 07:30:31;;;;;;;49.40;34.95;;;;;;;;;;5032600;28;20136;-81
2022/03/22 07:32:57;;;;;;;49.45;35.08;;;;;;;;;;5016090;28;20156;-81
2022/03/22 07:35:24;;;;;;;51.28;33.25;;;;;;;;;;5018030;28;19928;-81
2022/03/22 07:37:54;;;;;;;50.17;32.53;;;;;;;;;;5033145;28;20056;-82
2022/03/22 07:40:20;;;;;;;49.47;32.15;;;;;;;;;;5050833;28;20384;-81
2022/03/22 07:42:48;;;;;;;45.00;31.17;;;;;;;;;;5016532;28;20056;-82
2022/03/22 07:45:15;;;;;;;43.42;31.88;;;;;;;;;;5018653;28;20064;-81
2022/03/22 07:47:44;;;;;;;49.25;33.58;;;;;;;;;;5011084;28;20136;-79
2022/03/22 07:52:58;;;;;;;51.63;34.95;;;;;;;;;;5030023;28;20049;-78
2022/03/22 07:55:24;;;;;;;45.78;30.50;;;;;;;;;;5022022;28;20076;-78
2022/03/22 07:57:50;;;;;;;46.92;32.03;;;;;;;;;;5030286;28;20397;-78
2022/03/22 08:00:18;;;;;;;59.63;35.17;;;;;;;;;;5011032;28;20052;-78
2022/03/22 08:02:54;;;;;;;46.30;30.95;;;;;;;;;;5034357;28;20049;-78
2022/03/22 08:05:21;;;;;;;50.20;32.00;;;;;;;;;;5033761;28;20507;-79
2022/03/22 08:07:55;;;;;;;45.97;33.38;;;;;;;;;;5033863;28;20111;-81
2022/03/22 08:10:31;;;;;;;54.10;32.95;;;;;;;;;;5019333;28;20056;-80
2022/03/22 08:12:59;;;;;;;52.47;32.35;;;;;;;;;;5019249;28;20102;-80
2022/03/22 08:15:28;;;;;;;48.35;32.55;;;;;;;;;;5051068;28;20390;-80
2022/03/22 08:17:56;;;;;;;52.22;33.03;;;;;;;;;;5016880;28;20542;-80
2022/03/22 08:20:27;;;;;;;46.47;32.17;;;;;;;;;;5032867;28;20103;-81
2022/03/22 08:22:59;;;;;;;47.38;31.95;;;;;;;;;;5033187;28;20049;-81
2022/03/22 08:25:27;;;;;;;53.03;31.90;;;;;;;;;;5032913;28;20052;-81
2022/03/22 08:27:54;;;;;;;46.97;32.72;;;;;;;;;;5017330;28;20071;-80
2022/03/22 08:30:21;;;;;;;50.63;32.75;;;;;;;;;;5007740;28;20072;-80
2022/03/22 08:32:51;;;;;;;52.38;33.80;;;;;;;;;;5025938;28;20079;-81
2022/03/22 08:35:18;;;;;;;44.15;31.67;;;;;;;;;;5028471;28;20048;-81
2022/03/22 08:37:45;;;;;;;43.08;30.38;;;;;;;;;;5000135;28;20128;-81
2022/03/22 08:40:15;;;;;;;51.00;34.38;;;;;;;;;;5015644;28;20059;-80
2022/03/22 08:42:53;;;;;;;51.38;33.33;;;;;;;;;;5032477;28;20049;-81
2022/03/22 08:45:23;;;;;;;44.60;33.47;;;;;;;;;;5031738;28;20053;-81
2022/03/22 08:47:50;;;;;;;43.60;32.05;;;;;;;;;;5016432;28;20053;-81
2022/03/22 08:50:21;;;;;;;43.55;30.45;;;;;;;;;;5015886;28;20045;-81
2022/03/22 08:52:48;;;;;;;47.97;30.92;;;;;;;;;;5042057;28;20562;-81
2022/03/22 08:55:16;;;;;;;39.78;30.02;;;;;;;;;;5032687;28;20048;-81
2022/03/22 08:57:47;;;;;;;47.35;31.27;;;;;;;;;;5034373;28;20059;-81
2022/03/22 09:00:14;;;;;;;43.42;29.67;;;;;;;;;;5040179;28;20056;-80
2022/03/22 09:02:41;;;;;;;44.20;29.65;;;;;;;;;;5016227;28;20131;-81
2022/03/22 09:08:01;;;;;;;43.58;29.73;;;;;;;;;;5032350;28;20126;-81
2022/03/22 09:10:29;;;;;;;45.83;31.27;;;;;;;;;;5015511;28;20114;-81
2022/03/22 09:12:55;;;;;;;47.60;33.35;;;;;;;;;;5023623;28;20182;-81
2022/03/22 09:15:22;;;;;;;51.80;33.17;;;;;;;;;;5031134;28;20194;-81
2022/03/22 09:17:49;;;;;;;41.80;29.05;;;;;;;;;;5015701;28;20056;-81
2022/03/22 09:20:15;;;;;;;43.80;30.77;;;;;;;;;;5032064;28;20412;-82
2022/03/22 09:22:46;;;;;;;43.63;29.83;;;;;;;;;;5015035;28;20045;-82
2022/03/22 09:25:12;;;;;;;42.55;28.63;;;;;;;;;;5018530;28;20088;-82
2022/03/22 09:27:40;;;;;;;45.28;29.10;;;;;;;;;;5031875;28;20069;-82
2022/03/22 09:30:07;;;;;;;50.85;29.52;;;;;;;;;;5015342;28;20060;-82
2022/03/22 09:32:35;;;;;;;41.42;28.95;;;;;;;;;;5031923;28;20091;-82
2022/03/22 09:35:06;;;;;;;45.65;30.08;;;;;;;;;;5031601;28;20404;-82
2022/03/22 09:37:33;;;;;;;45.70;30.80;;;;;;;;;;5015345;28;20132;-82
2022/03/22 09:39:59;;;;;;;41.03;30.35;;;;;;;;;;5024343;28;20106;-82
2022/03/22 09:42:27;;;;;;;42.35;30.30;;;;;;;;;;5031050;28;20547;-82
2022/03/22 09:44:55;;;;;;;42.38;29.27;;;;;;;;;;5033945;28;20048;-82
2022/03/22 09:47:24;;;;;;;49.88;31.85;;;;;;;;;;5018498;28;20202;-82
2022/03/22 09:49:51;;;;;;;44.72;29.85;;;;;;;;;;5031823;28;20404;-82
2022/03/22 09:52:20;;;;;;;39.35;29.33;;;;;;;;;;5031394;28;20049;-82
2022/03/22 09:54:49;;;;;;;44.42;28.25;;;;;;;;;;5013728;28;20041;-82
2022/03/22 09:57:16;;;;;;;45.33;29.85;;;;;;;;;;5017736;28;20283;-82
2022/03/22 09:59:42;;;;;;;46.45;30.17;;;;;;;;;;5030216;28;20665;-82
2022/03/22 10:02:14;;;;;;;39.97;27.03;;;;;;;;;;5020928;28;20087;-82
2022/03/22 10:04:41;;;;;;;35.60;26.55;;;;;;;;;;5015045;28;20067;-83
2022/03/22 10:07:09;;;;;;;41.78;27.17;;;;;;;;;;5003816;28;20052;-83
2022/03/22 10:09:39;;;;;;;41.28;25.70;;;;;;;;;;5047616;28;20128;-83
2022/03/22 10:12:10;;;;;;;39.58;26.58;;;;;;;;;;5028631;28;20067;-83
2022/03/22 10:14:39;;;;;;;42.42;29.10;;;;;;;;;;4997729;28;20136;-83
2022/03/22 10:17:12;;;;;;;36.15;24.92;;;;;;;;;;5023790;28;20141;-83
2022/03/22 10:19:56;;;;;;;37.60;26.92;;;;;;;;;;5026488;28;20049;-83
2022/03/22 10:22:26;;;;;;;41.25;26.42;;;;;;;;;;5031154;28;20100;-83
2022/03/22 10:24:55;;;;;;;37.40;27.70;;;;;;;;;;5014459;28;20053;-83
2022/03/22 10:27:25;;;;;;;35.95;26.08;;;;;;;;;;5020420;28;20398;-83
2022/03/22 10:29:58;;;;;;;38.67;26.70;;;;;;;;;;4999684;28;20200;-83
2022/03/22 10:32:35;;;;;;;38.65;28.17;;;;;;;;;;5044403;28;20500;-83
2022/03/22 10:35:22;;;;;;;38.53;27.17;;;;;;;;;;5030411;28;20049;-82
2022/03/22 10:37:54;;;;;;;39.35;26.60;;;;;;;;;;5032765;28;20124;-82
2022/03/22 10:40:28;;;;;;;36.75;26.13;;;;;;;;;;5020607;28;20540;-83
2022/03/22 10:42:59;;;;;;;36.05;26.83;;;;;;;;;;5025893;28;20171;-83
2022/03/22 10:45:27;;;;;;;35.17;26.73;;;;;;;;;;5013871;28;20049;-83
2022/03/22 10:47:54;;;;;;;34.10;26.50;;;;;;;;;;5030512;28;20463;-82
2022/03/22 10:50:20;;;;;;;38.88;26.20;;;;;;;;;;5033633;28;20055;-83
2022/03/22 10:52:47;;;;;;;34.38;25.30;;;;;;;;;;5030590;28;20084;-83
2022/03/22 10:55:19;;;;;;;38.30;25.65;;;;;;;;;;5030233;28;20068;-83
2022/03/22 10:57:50;;;;;;;35.55;25.85;;;;;;;;;;5029896;28;20049;-83
2022/03/22 11:00:16;;;;;;;39.85;25.08;;;;;;;;;;5013766;28;20041;-83
2022/03/22 11:02:46;;;;;;;38.55;26.83;;;;;;;;;;5034618;28;20127;-83
2022/03/22 11:05:14;;;;;;;35.10;24.23;;;;;;;;;;4998806;28;20045;-83
2022/03/22 11:07:41;;;;;;;34.70;24.92;;;;;;;;;;5030237;28;20080;-83
2022/03/22 11:10:07;;;;;;;37.55;24.75;;;;;;;;;;5013903;28;20080;-83
2022/03/22 11:12:35;;;;;;;35.78;25.15;;;;;;;;;;5026784;28;20935;-83
2022/03/22 11:15:05;;;;;;;36.28;25.13;;;;;;;;;;5010689;28;20527;-83
2022/03/22 11:17:34;;;;;;;34.63;23.77;;;;;;;;;;4974864;28;20485;-83
2022/03/22 11:20:01;;;;;;;32.97;23.45;;;;;;;;;;5029881;28;20555;-83
2022/03/22 11:22:35;;;;;;;35.28;24.35;;;;;;;;;;5014744;28;20116;-83
2022/03/22 11:25:11;;;;;;;35.88;24.38;;;;;;;;;;5027785;28;20080;-82
2022/03/22 11:27:41;;;;;;;32.63;24.83;;;;;;;;;;5026954;28;20053;-83
2022/03/22 11:30:10;;;;;;;32.47;23.00;;;;;;;;;;5021098;28;20050;-83
2022/03/22 11:35:25;;;;;;;27.55;18.67;;;;;;;;;;5026703;28;20115;-83
2022/03/22 11:38:00;;;;;;;34.05;19.75;;;;;;;;;;5010183;28;20061;-82
2022/03/22 11:43:15;;;;;;;30.67;21.02;;;;;;;;;;5029548;28;20732;-83
2022/03/22 11:45:46;;;;;;;28.55;20.05;;;;;;;;;;5005905;28;20042;-83
2022/03/22 11:48:12;;;;;;;29.15;20.13;;;;;;;;;;5011362;28;20086;-83
2022/03/22 11:50:38;;;;;;;25.23;19.55;;;;;;;;;;4988477;28;20049;-83
2022/03/22 11:53:19;;;;;;;31.40;19.80;;;;;;;;;;5018656;28;20514;-83
2022/03/22 11:55:48;;;;;;;27.30;19.85;;;;;;;;;;5026463;28;20057;-83
2022/03/22 11:58:15;;;;;;;34.17;22.38;;;;;;;;;;5013813;28;20041;-83
2022/03/22 12:00:51;;;;;;;30.65;21.45;;;;;;;;;;5029152;28;20408;-83
2022/03/22 12:03:19;;;;;;;28.20;20.85;;;;;;;;;;5035663;28;20213;-83
2022/03/22 12:05:46;;;;;;;27.65;19.83;;;;;;;;;;4990360;28;20092;-83
2022/03/22 12:08:16;;;;;;;29.48;21.10;;;;;;;;;;5012628;28;20033;-83
2022/03/22 12:10:49;;;;;;;28.83;21.08;;;;;;;;;;5031400;28;20545;-83
2022/03/22 12:13:16;;;;;;;32.53;21.02;;;;;;;;;;5028528;28;20394;-83
2022/03/22 12:15:42;;;;;;;26.35;19.67;;;;;;;;;;5033894;28;20093;-83
2022/03/22 12:18:14;;;;;;;28.30;19.70;;;;;;;;;;5030251;28;20049;-83
2022/03/22 12:20:43;;;;;;;26.90;20.02;;;;;;;;;;4992898;28;20042;-83
2022/03/22 12:23:12;;;;;;;29.90;20.67;;;;;;;;;;5013195;28;20324;-83
2022/03/22 12:25:38;;;;;;;28.65;19.40;;;;;;;;;;4997262;28;20129;-83
2022/03/22 12:28:09;;;;;;;29.23;20.20;;;;;;;;;;4997541;28;20413;-83
2022/03/22 12:30:42;;;;;;;29.13;18.55;;;;;;;;;;5022959;28;20129;-83
2022/03/22 12:33:11;;;;;;;27.25;19.15;;;;;;;;;;5029918;28;20053;-83
2022/03/22 12:35:38;;;;;;;28.85;21.00;;;;;;;;;;5017118;28;20057;-83
2022/03/22 12:38:08;;;;;;;29.23;19.27;;;;;;;;;;5027741;28;20041;-83
2022/03/22 12:40:37;;;;;;;26.25;21.35;;;;;;;;;;5021656;28;20049;-83
2022/03/22 12:43:06;;;;;;;25.45;19.70;;;;;;;;;;5031248;28;20060;-83
2022/03/22 12:45:32;;;;;;;26.33;20.38;;;;;;;;;;5029305;28;20557;-83
2022/03/22 12:47:58;;;;;;;28.52;19.55;;;;;;;;;;5032699;28;20045;-83
2022/03/22 12:50:27;;;;;;;31.92;21.30;;;;;;;;;;5020751;28;20572;-83
2022/03/22 12:52:53;;;;;;;27.63;19.15;;;;;;;;;;5012530;28;20054;-83
2022/03/22 12:55:20;;;;;;;23.58;16.55;;;;;;;;;;5012569;28;20362;-83
2022/03/22 12:57:48;;;;;;;22.75;17.05;;;;;;;;;;5031862;28;20354;-83
2022/03/22 13:00:35;;;;;;;28.15;17.38;;;;;;;;;;5012374;28;20081;-83
2022/03/22 13:03:13;;;;;;;24.73;16.30;;;;;;;;;;5012270;28;20107;-83
2022/03/22 13:05:47;;;;;;;22.40;16.15;;;;;;;;;;4995795;28;20505;-83
2022/03/22 13:08:14;;;;;;;25.20;17.10;;;;;;;;;;5029362;28;20129;-83
2022/03/22 13:16:21;;;;;;;23.02;16.35;;;;;;;;;;5029028;28;20128;-82
2022/03/22 13:18:52;;;;;;;30.05;19.08;;;;;;;;;;4995903;28;20057;-81
2022/03/22 13:21:33;;;;;;;24.05;16.73;;;;;;;;;;5027680;28;20042;-82
2022/03/22 13:24:10;;;;;;;21.52;17.23;;;;;;;;;;5012498;28;20053;-82
2022/03/22 13:26:51;;;;;;;26.98;16.55;;;;;;;;;;5032704;28;20132;-82
2022/03/22 13:29:20;;;;;;;22.90;15.50;;;;;;;;;;5028740;28;20049;-82
2022/03/22 13:32:13;;;;;;;23.27;18.33;;;;;;;;;;4992434;28;20045;-81
2022/03/22 13:34:41;;;;;;;20.08;15.70;;;;;;;;;;5019377;28;20080;-81
2022/03/22 13:37:12;;;;;;;24.33;17.10;;;;;;;;;;5015052;28;20041;-81
2022/03/22 13:39:39;;;;;;;24.50;16.55;;;;;;;;;;5020508;28;20081;-81
2022/03/22 13:42:13;;;;;;;22.45;16.33;;;;;;;;;;5010614;28;20065;-81
2022/03/22 13:44:48;;;;;;;28.50;17.80;;;;;;;;;;4995115;28;20054;-82
2022/03/22 13:47:27;;;;;;;29.15;18.45;;;;;;;;;;5011799;28;20049;-83
2022/03/22 13:49:59;;;;;;;22.38;17.08;;;;;;;;;;4995580;28;20552;-82
2022/03/22 13:52:29;;;;;;;24.83;17.70;;;;;;;;;;4996340;28;20104;-82
2022/03/22 13:54:57;;;;;;;20.23;16.48;;;;;;;;;;5011650;28;20064;-83
2022/03/22 13:57:26;;;;;;;23.20;16.83;;;;;;;;;;5011294;28;20119;-83
2022/03/22 13:59:58;;;;;;;23.08;15.35;;;;;;;;;;5027582;28;20132;-82
2022/03/22 14:02:24;;;;;;;22.67;17.17;;;;;;;;;;5026587;28;20056;-82
2022/03/22 14:04:50;;;;;;;22.88;14.27;;;;;;;;;;5028015;28;20075;-83
2022/03/22 14:07:16;;;;;;;24.00;16.33;;;;;;;;;;5011063;28;20073;-83
2022/03/22 14:09:42;;;;;;;23.38;15.95;;;;;;;;;;5028072;28;20086;-83
2022/03/22 14:12:09;;;;;;;21.67;15.93;;;;;;;;;;4995366;28;20055;-82
2022/03/22 14:14:38;;;;;;;24.85;15.45;;;;;;;;;;4994591;28;20131;-82
2022/03/22 14:17:07;;;;;;;24.83;17.05;;;;;;;;;;5027436;28;20041;-83
2022/03/22 14:19:37;;;;;;;20.92;15.75;;;;;;;;;;5027763;28;20502;-83
2022/03/22 14:22:03;;;;;;;25.35;16.25;;;;;;;;;;5001906;28;20037;-83
2022/03/22 14:24:31;;;;;;;21.75;16.27;;;;;;;;;;5004775;28;20377;-82
2022/03/22 14:27:07;;;;;;;23.83;16.85;;;;;;;;;;5024864;28;20054;-82
2022/03/22 14:29:34;;;;;;;23.58;15.50;;;;;;;;;;5011326;28;20501;-82
2022/03/22 14:32:00;;;;;;;19.52;15.15;;;;;;;;;;5011187;28;20453;-82
2022/03/22 14:37:17;;;;;;;23.02;15.93;;;;;;;;;;5026588;28;20494;-82
2022/03/22 14:39:45;;;;;;;26.65;16.50;;;;;;;;;;5022682;28;20045;-83
2022/03/22 14:42:13;;;;;;;22.08;17.00;;;;;;;;;;5025098;28;20051;-82
2022/03/22 14:44:42;;;;;;;29.50;17.63;;;;;;;;;;5023163;28;20049;-82
2022/03/22 14:47:10;;;;;;;22.92;17.10;;;;;;;;;;5007318;28;20053;-83
2022/03/22 14:49:37;;;;;;;24.58;17.52;;;;;;;;;;5025056;28;20056;-82
2022/03/22 14:54:48;;;;;;;26.83;17.70;;;;;;;;;;5008398;28;20129;-82
2022/03/22 15:00:03;;;;;;;27.27;17.10;;;;;;;;;;5026459;28;20121;-82
2022/03/22 15:02:29;;;;;;;24.30;16.45;;;;;;;;;;4991274;28;20181;-82
2022/03/22 15:04:58;;;;;;;24.45;17.70;;;;;;;;;;5037696;28;20610;-82
2022/03/22 15:07:25;;;;;;;24.40;16.48;;;;;;;;;;5005687;28;20071;-80
2022/03/22 15:09:52;;;;;;;25.05;18.00;;;;;;;;;;4992316;28;20175;-80
2022/03/22 15:12:20;;;;;;;25.60;16.35;;;;;;;;;;5024599;28;20041;-80
2022/03/22 15:14:49;;;;;;;23.67;16.30;;;;;;;;;;5014792;28;20405;-80